Time;durP1;ratioP1;P1;durP2;ratioP2;P2;SDS_P1;SDS_P2;PMS_P1;PMS_P2;Temp;Humidity;BMP_temperature;BMP_pressure;BME280_temperature;BME280_humidity;BME280_pressure;Samples;Min_cycle;Max_cycle;Signal;HPM_P1;HPM_P2
2022/03/04 00:01:56;;;;;;;26.83;14.52;;;;;;;-142.75;100.00;78775.59;5031356;28;20064;-66
2022/03/04 00:04:21;;;;;;;22.88;13.52;;;;;;;-142.75;100.00;78787.41;5031457;28;20099;-66
2022/03/04 00:06:47;;;;;;;22.60;13.02;;;;;;;-142.75;100.00;78795.28;5031278;28;20017;-67
2022/03/04 00:09:12;;;;;;;22.17;12.77;;;;;;;-142.75;100.00;78799.22;5030938;28;20025;-67
2022/03/04 00:11:37;;;;;;;24.25;13.70;;;;;;;-142.75;100.00;78805.13;5029792;28;20030;-66
2022/03/04 00:14:03;;;;;;;25.33;13.50;;;;;;;-142.75;100.00;78803.16;5031254;28;20376;-66
2022/03/04 00:16:28;;;;;;;23.40;13.70;;;;;;;-142.75;100.00;78816.94;5031315;28;20021;-66
2022/03/04 00:19:12;;;;;;;24.63;13.85;;;;;;;-142.75;100.00;78826.81;5030830;28;20221;-67
2022/03/04 00:21:43;;;;;;;24.53;13.90;;;;;;;-142.75;100.00;78828.78;5031146;28;20022;-66
2022/03/04 00:24:09;;;;;;;23.10;13.30;;;;;;;-142.75;100.00;78834.69;5030894;28;20024;-67
2022/03/04 00:26:36;;;;;;;23.63;13.60;;;;;;;-142.75;100.00;78826.81;5030935;28;20365;-67
2022/03/04 00:29:03;;;;;;;22.80;13.57;;;;;;;-142.75;100.00;78824.84;5030656;28;20036;-67
2022/03/04 00:31:29;;;;;;;24.83;14.13;;;;;;;-142.75;100.00;78820.88;5030864;28;20036;-67
2022/03/04 00:33:55;;;;;;;24.52;14.18;;;;;;;-142.75;100.00;78820.88;5030959;28;20457;-67
2022/03/04 00:36:23;;;;;;;28.02;14.45;;;;;;;-142.75;100.00;78822.88;5030924;28;20047;-66
2022/03/04 00:38:54;;;;;;;26.90;14.50;;;;;;;-142.75;100.00;78820.88;5029173;28;20018;-67
2022/03/04 00:41:22;;;;;;;27.13;14.80;;;;;;;-142.75;100.00;78834.69;5030846;28;20032;-67
2022/03/04 00:43:48;;;;;;;23.90;13.83;;;;;;;-142.75;100.00;78846.50;5030742;28;20037;-66
2022/03/04 00:46:15;;;;;;;24.20;14.50;;;;;;;-142.75;100.00;78860.28;5030567;28;20502;-67
2022/03/04 00:48:41;;;;;;;25.80;14.20;;;;;;;-142.75;100.00;78860.28;5030546;28;20052;-67
2022/03/04 00:51:07;;;;;;;26.52;14.38;;;;;;;-142.75;100.00;78874.06;5030626;28;20053;-67
2022/03/04 00:53:32;;;;;;;25.63;13.95;;;;;;;-142.75;100.00;78874.06;5030611;28;20132;-67
2022/03/04 00:55:58;;;;;;;24.67;15.02;;;;;;;-142.75;100.00;78885.88;5030638;28;20029;-66
2022/03/04 00:58:23;;;;;;;28.20;15.32;;;;;;;-142.75;100.00;78889.81;5029067;28;20029;-66
2022/03/04 01:00:49;;;;;;;27.15;15.15;;;;;;;-142.75;100.00;78899.69;5030669;28;20026;-67
2022/03/04 01:03:14;;;;;;;26.55;14.88;;;;;;;-142.75;100.00;78905.59;5030607;28;20100;-67
2022/03/04 01:05:39;;;;;;;28.83;15.37;;;;;;;-142.75;100.00;78901.66;5029195;28;20028;-67
2022/03/04 01:08:05;;;;;;;27.67;15.17;;;;;;;-142.75;100.00;78905.59;5032887;28;20272;-66
2022/03/04 01:10:30;;;;;;;25.88;14.52;;;;;;;-142.75;100.00;78901.66;5034568;28;20329;-67
2022/03/04 01:12:56;;;;;;;27.52;15.45;;;;;;;-142.75;100.00;78897.72;5034490;28;20041;-66
2022/03/04 01:15:21;;;;;;;28.48;16.20;;;;;;;-142.75;100.00;78891.78;5034412;28;20029;-66
2022/03/04 01:17:46;;;;;;;26.40;14.13;;;;;;;-142.75;100.00;78885.88;5033159;28;20152;-67
2022/03/04 01:20:12;;;;;;;23.27;14.30;;;;;;;-142.75;100.00;78878.00;5034317;28;20086;-67
2022/03/04 01:22:37;;;;;;;29.73;15.17;;;;;;;-142.75;100.00;78887.84;5033036;28;20862;-67
2022/03/04 01:25:03;;;;;;;27.33;14.88;;;;;;;-142.75;100.00;78889.81;5034358;28;20047;-66
2022/03/04 01:27:29;;;;;;;;;;;;;;;-142.75;100.00;78899.69;5035226;28;20029;-66
2022/03/04 01:29:54;;;;;;;24.50;13.40;;;;;;;-142.75;100.00;78907.56;5033924;28;19913;-67
2022/03/04 01:32:19;;;;;;;24.92;13.45;;;;;;;-142.75;100.00;78899.69;5033036;28;20032;-66
2022/03/04 01:34:45;;;;;;;25.08;14.23;;;;;;;-142.75;100.00;78901.66;5034373;28;20152;-67
2022/03/04 01:37:10;;;;;;;25.03;14.40;;;;;;;-142.75;100.00;78901.66;5033995;28;20033;-67
2022/03/04 01:39:36;;;;;;;24.58;14.93;;;;;;;-142.75;100.00;78901.66;5033806;28;20373;-67
2022/03/04 01:42:02;;;;;;;24.27;14.13;;;;;;;-142.75;100.00;78893.78;5032801;28;20116;-67
2022/03/04 01:44:28;;;;;;;24.70;14.47;;;;;;;-142.75;100.00;78901.66;5034023;28;20048;-67
2022/03/04 01:46:53;;;;;;;27.60;15.35;;;;;;;-142.75;100.00;78913.47;5033735;28;20021;-67
2022/03/04 01:49:19;;;;;;;25.90;14.73;;;;;;;-142.75;100.00;78907.56;5033715;28;20029;-67
2022/03/04 01:51:44;;;;;;;24.13;13.57;;;;;;;-142.75;100.00;78905.59;5033674;28;20029;-67
2022/03/04 01:54:09;;;;;;;24.10;14.63;;;;;;;-142.75;100.00;78921.34;5033782;28;20026;-67
2022/03/04 01:56:35;;;;;;;27.65;14.38;;;;;;;-142.75;100.00;78931.19;5033730;28;20439;-66
2022/03/04 01:59:00;;;;;;;24.63;14.40;;;;;;;-142.75;100.00;78937.09;5033358;28;20040;-67
2022/03/04 02:01:25;;;;;;;27.37;15.60;;;;;;;-142.75;100.00;78950.88;5033732;28;20287;-67
2022/03/04 02:03:51;;;;;;;22.98;13.85;;;;;;;-142.75;100.00;78950.88;5032319;28;20318;-67
2022/03/04 02:06:16;;;;;;;24.70;13.77;;;;;;;-142.75;100.00;78944.97;5033474;28;20056;-67
2022/03/04 02:08:42;;;;;;;24.70;15.00;;;;;;;-142.75;100.00;78941.03;5033351;28;20080;-66
2022/03/04 02:11:08;;;;;;;25.45;14.52;;;;;;;-142.75;100.00;78948.91;5033373;28;20038;-67
2022/03/04 02:13:34;;;;;;;29.40;14.27;;;;;;;-142.75;100.00;78946.94;5033441;28;20025;-67
2022/03/04 02:16:00;;;;;;;25.90;14.53;;;;;;;-142.75;100.00;78952.84;5033304;28;20088;-67
2022/03/04 02:18:25;;;;;;;25.25;14.77;;;;;;;-142.75;100.00;78952.84;5032977;28;20100;-67
2022/03/04 02:20:52;;;;;;;24.05;14.70;;;;;;;-142.75;100.00;78960.72;5033207;28;20040;-67
2022/03/04 02:23:17;;;;;;;26.90;14.10;;;;;;;-142.75;100.00;78958.75;5033279;28;20017;-67
2022/03/04 02:25:48;;;;;;;28.52;14.82;;;;;;;-142.75;100.00;78946.94;5031846;28;20028;-67
2022/03/04 02:28:13;;;;;;;23.43;12.83;;;;;;;-142.75;100.00;78948.91;5032856;28;20573;-67
2022/03/04 02:30:39;;;;;;;28.98;15.43;;;;;;;-142.75;100.00;78944.97;5033244;28;20030;-67
2022/03/04 02:33:06;;;;;;;27.43;14.83;;;;;;;-142.75;100.00;78952.84;5032951;28;20025;-67
2022/03/04 02:35:32;;;;;;;33.13;14.57;;;;;;;-142.75;100.00;78966.66;5032968;28;20268;-66
2022/03/04 02:37:57;;;;;;;30.30;14.63;;;;;;;-142.75;100.00;78982.41;5032651;28;20080;-66
2022/03/04 02:40:24;;;;;;;27.88;14.95;;;;;;;-142.75;100.00;78986.34;5033043;28;20029;-67
2022/03/04 02:42:49;;;;;;;;;;;;;;;-142.75;100.00;78980.44;5033293;28;20049;-67
2022/03/04 02:45:14;;;;;;;24.20;13.43;;;;;;;-142.75;100.00;78970.59;5031942;28;19955;-66
2022/03/04 02:47:42;;;;;;;29.90;14.20;;;;;;;-142.75;100.00;78976.50;5032723;28;21423;-66
2022/03/04 02:50:08;;;;;;;23.73;13.50;;;;;;;-142.75;100.00;78980.44;5031292;28;20275;-67
2022/03/04 02:52:33;;;;;;;27.92;14.05;;;;;;;-142.75;100.00;78992.25;5032692;28;20045;-66
2022/03/04 02:54:58;;;;;;;24.30;13.98;;;;;;;-142.75;100.00;78984.38;5032825;28;20231;-66
2022/03/04 02:57:24;;;;;;;23.93;13.87;;;;;;;-142.75;100.00;78980.44;5031363;28;20848;-67
2022/03/04 02:59:49;;;;;;;27.43;15.03;;;;;;;-142.75;100.00;78988.31;5032241;28;20273;-66
2022/03/04 03:02:14;;;;;;;29.10;15.33;;;;;;;-142.75;100.00;78992.25;5032592;28;20029;-67
2022/03/04 03:04:39;;;;;;;29.47;16.03;;;;;;;-142.75;100.00;79006.03;5032379;28;20283;-66
2022/03/04 03:07:05;;;;;;;29.42;15.55;;;;;;;-142.75;100.00;79000.13;5032385;28;20043;-66
2022/03/04 03:09:30;;;;;;;26.98;15.25;;;;;;;-142.75;100.00;79015.88;5032196;28;20032;-67
2022/03/04 03:11:55;;;;;;;25.87;15.10;;;;;;;-142.75;100.00;79015.88;5032209;28;20032;-67
2022/03/04 03:14:21;;;;;;;28.13;14.20;;;;;;;-142.75;100.00;79011.94;5032353;28;20036;-67
2022/03/04 03:16:46;;;;;;;28.50;15.27;;;;;;;-142.75;100.00;79017.84;5032232;28;20028;-67
2022/03/04 03:19:11;;;;;;;25.00;15.00;;;;;;;-142.75;100.00;79023.75;5030824;28;20495;-67
2022/03/04 03:21:36;;;;;;;26.05;13.80;;;;;;;-142.75;100.00;79025.72;5032178;28;20018;-67
2022/03/04 03:24:03;;;;;;;27.07;15.50;;;;;;;-142.75;100.00;79017.84;5032206;28;20021;-67
2022/03/04 03:26:28;;;;;;;28.17;14.10;;;;;;;-142.75;100.00;79035.59;5032080;28;20347;-67
2022/03/04 03:28:53;;;;;;;28.40;15.45;;;;;;;-142.75;100.00;79045.44;5031798;28;20121;-67
2022/03/04 03:31:18;;;;;;;24.88;13.82;;;;;;;-142.75;100.00;79055.28;5031332;28;20036;-67
2022/03/04 03:33:44;;;;;;;29.63;15.00;;;;;;;-142.75;100.00;79063.16;5031859;28;20025;-67
2022/03/04 03:36:09;;;;;;;26.40;14.52;;;;;;;-142.75;100.00;79057.25;5031882;28;20025;-66
2022/03/04 03:38:35;;;;;;;30.00;14.43;;;;;;;-142.75;100.00;79065.13;5031528;28;20049;-66
2022/03/04 03:41:00;;;;;;;28.00;14.93;;;;;;;-142.75;100.00;79065.13;5031743;28;20029;-67
2022/03/04 03:43:25;;;;;;;27.00;14.87;;;;;;;-142.75;100.00;79076.94;5031759;28;20037;-67
2022/03/04 03:45:51;;;;;;;25.63;14.68;;;;;;;-142.75;100.00;79096.66;5031534;28;20403;-67
2022/03/04 03:48:16;;;;;;;27.08;14.77;;;;;;;-142.75;100.00;79102.56;5031430;28;20025;-67
2022/03/04 03:50:41;;;;;;;28.63;15.23;;;;;;;-142.75;100.00;79084.81;5031526;28;20036;-67
2022/03/04 03:53:08;;;;;;;30.30;15.43;;;;;;;-142.75;100.00;79090.72;5031646;28;20033;-66
2022/03/04 03:55:34;;;;;;;32.40;15.87;;;;;;;-142.75;100.00;79086.78;5031416;28;20087;-67
2022/03/04 03:57:59;;;;;;;28.67;15.85;;;;;;;-142.75;100.00;79080.88;5031256;28;20025;-66
2022/03/04 04:00:25;;;;;;;30.45;16.35;;;;;;;-142.75;100.00;79082.84;5031452;28;20021;-67
2022/03/04 04:02:50;;;;;;;28.65;15.82;;;;;;;-142.75;100.00;79084.81;5031390;28;20109;-67
2022/03/04 04:05:16;;;;;;;29.23;15.60;;;;;;;-142.75;100.00;79090.72;5031310;28;20101;-67
2022/03/04 04:07:41;;;;;;;29.20;16.27;;;;;;;-142.75;100.00;79098.63;5031232;28;20280;-67
2022/03/04 04:10:07;;;;;;;29.20;16.20;;;;;;;-142.75;100.00;79110.44;5031114;28;20322;-67
2022/03/04 04:12:32;;;;;;;32.38;17.45;;;;;;;-142.75;100.00;79124.22;5031019;28;20283;-66
2022/03/04 04:14:57;;;;;;;27.58;15.73;;;;;;;-142.75;100.00;79126.19;5031303;28;20495;-67
2022/03/04 04:17:23;;;;;;;30.17;15.40;;;;;;;-142.75;100.00;79134.06;5031079;28;20510;-67
2022/03/04 04:19:48;;;;;;;32.15;17.20;;;;;;;-142.75;100.00;79136.03;5031025;28;20305;-67
2022/03/04 04:22:13;;;;;;;31.48;15.85;;;;;;;-142.75;100.00;79126.19;5031242;28;20056;-66
2022/03/04 04:24:39;;;;;;;28.73;15.45;;;;;;;-142.75;100.00;79134.06;5031141;28;20391;-67
2022/03/04 04:27:04;;;;;;;28.33;15.30;;;;;;;-142.75;100.00;79124.22;5030946;28;20033;-67
2022/03/04 04:29:29;;;;;;;33.70;17.25;;;;;;;-142.75;100.00;79122.25;5030792;28;20498;-67
2022/03/04 04:31:54;;;;;;;30.73;16.73;;;;;;;-142.75;100.00;79132.09;5030877;28;20037;-66
2022/03/04 04:34:20;;;;;;;31.60;16.97;;;;;;;-142.75;100.00;79141.94;5030823;28;20313;-67
2022/03/04 04:36:45;;;;;;;31.73;16.15;;;;;;;-142.75;100.00;79141.94;5030864;28;20029;-67
2022/03/04 04:39:10;;;;;;;33.25;16.02;;;;;;;-142.75;100.00;79139.97;5029338;28;20063;-67
2022/03/04 04:41:36;;;;;;;30.17;16.55;;;;;;;-142.75;100.00;79139.97;5029874;28;20100;-67
2022/03/04 04:44:01;;;;;;;30.08;15.98;;;;;;;-142.75;100.00;79145.88;5029553;28;20029;-67
2022/03/04 04:46:26;;;;;;;33.67;17.08;;;;;;;-142.75;100.00;79145.88;5030578;28;20037;-66
2022/03/04 04:48:52;;;;;;;29.93;16.27;;;;;;;-142.75;100.00;79138.00;5030420;28;20057;-67
2022/03/04 04:51:17;;;;;;;30.83;15.90;;;;;;;-142.75;100.00;79153.75;5030643;28;20779;-67
2022/03/04 04:53:43;;;;;;;27.42;14.75;;;;;;;-142.75;100.00;79157.72;5029535;28;20025;-66
2022/03/04 04:56:09;;;;;;;36.57;16.60;;;;;;;-142.75;100.00;79169.53;5030649;28;20037;-67
2022/03/04 04:58:35;;;;;;;32.90;16.75;;;;;;;-142.75;100.00;79165.59;5030335;28;20033;-66
2022/03/04 05:01:00;;;;;;;27.25;16.23;;;;;;;-142.75;100.00;79165.59;5030743;28;20064;-67
2022/03/04 05:03:27;;;;;;;36.13;17.75;;;;;;;-142.75;100.00;79173.47;5030476;28;20025;-66
2022/03/04 05:05:54;;;;;;;32.80;16.87;;;;;;;-142.75;100.00;79165.59;5030606;28;20055;-66
2022/03/04 05:08:20;;;;;;;36.83;16.37;;;;;;;-142.75;100.00;79171.50;5030406;28;20483;-66
2022/03/04 05:10:46;;;;;;;32.40;16.45;;;;;;;-142.75;100.00;79179.38;5030633;28;20033;-66
2022/03/04 05:13:11;;;;;;;29.15;15.77;;;;;;;-142.75;100.00;79171.50;5030572;28;20036;-66
2022/03/04 05:15:37;;;;;;;35.85;16.85;;;;;;;-142.75;100.00;79169.53;5030595;28;20021;-66
2022/03/04 05:18:03;;;;;;;32.83;16.10;;;;;;;-142.75;100.00;79167.56;5030173;28;20033;-66
2022/03/04 05:20:28;;;;;;;30.90;16.83;;;;;;;-142.75;100.00;79171.50;5029289;28;20088;-67
2022/03/04 05:22:53;;;;;;;34.30;16.63;;;;;;;-142.75;100.00;79173.47;5030431;28;20072;-66
2022/03/04 05:25:19;;;;;;;36.33;16.80;;;;;;;-142.75;100.00;79183.31;5030493;28;20471;-67
2022/03/04 05:27:45;;;;;;;27.75;15.27;;;;;;;-142.75;100.00;79173.47;5030311;28;20079;-67
2022/03/04 05:30:10;;;;;;;;;;;;;;;-142.75;100.00;79173.47;5030693;28;20499;-66
2022/03/04 05:32:36;;;;;;;31.97;16.43;;;;;;;-142.75;100.00;79175.44;5030154;28;19956;-66
2022/03/04 05:35:02;;;;;;;34.63;16.75;;;;;;;-142.75;100.00;79171.50;5030378;28;20068;-66
2022/03/04 05:37:27;;;;;;;35.55;16.83;;;;;;;-142.75;100.00;79175.44;5030381;28;20060;-67
2022/03/04 05:39:52;;;;;;;30.30;15.60;;;;;;;-142.75;100.00;79177.41;5029919;28;20079;-67
2022/03/04 05:42:19;;;;;;;41.00;17.33;;;;;;;-142.75;100.00;79179.38;5028974;28;20278;-66
2022/03/04 05:44:44;;;;;;;31.47;16.27;;;;;;;-142.75;100.00;79181.34;5030176;28;20282;-67
2022/03/04 05:47:10;;;;;;;31.63;16.65;;;;;;;-142.75;100.00;79173.47;5052856;22;20049;-72
2022/03/04 05:49:35;;;;;;;31.52;16.15;;;;;;;-142.75;100.00;79175.44;5027625;28;20474;-73
2022/03/04 05:52:01;;;;;;;30.95;15.77;;;;;;;-142.75;100.00;79183.31;5029779;28;20021;-72
2022/03/04 05:54:26;;;;;;;33.85;17.00;;;;;;;-142.75;100.00;79191.19;5032907;28;20037;-73
2022/03/04 05:56:52;;;;;;;33.58;16.83;;;;;;;-142.75;100.00;79201.03;5033713;28;20091;-72
2022/03/04 05:59:17;;;;;;;31.27;15.63;;;;;;;-142.75;100.00;79204.97;5032211;28;20067;-72
2022/03/04 06:01:42;;;;;;;33.72;16.48;;;;;;;-142.75;100.00;79212.84;5031767;28;20391;-72
2022/03/04 06:04:07;;;;;;;35.10;16.98;;;;;;;-142.75;100.00;79218.75;5033669;28;20029;-72
2022/03/04 06:06:33;;;;;;;32.35;16.73;;;;;;;-142.75;100.00;79212.84;5032171;28;20033;-72
2022/03/04 06:08:58;;;;;;;29.33;15.20;;;;;;;-142.75;100.00;79224.69;5033281;28;20179;-73
2022/03/04 06:11:25;;;;;;;36.22;17.73;;;;;;;-142.75;100.00;79224.69;5033440;28;20433;-72
2022/03/04 06:13:50;;;;;;;32.37;16.27;;;;;;;-142.75;100.00;79232.56;5033491;28;20025;-72
2022/03/04 06:16:15;;;;;;;32.38;16.95;;;;;;;-142.75;100.00;79244.38;5033202;28;20029;-72
2022/03/04 06:18:41;;;;;;;37.03;17.43;;;;;;;-142.75;100.00;79246.34;5032236;28;20083;-72
2022/03/04 06:21:06;;;;;;;31.65;16.70;;;;;;;-142.75;100.00;79248.31;5032027;28;20280;-73
2022/03/04 06:23:31;;;;;;;31.40;17.10;;;;;;;-142.75;100.00;79246.34;5031918;28;20025;-72
2022/03/04 06:26:00;;;;;;;32.63;17.25;;;;;;;-142.75;100.00;79256.19;5031698;28;20103;-71
2022/03/04 06:28:26;;;;;;;32.47;17.70;;;;;;;-142.75;100.00;79256.19;5030552;28;20040;-72
2022/03/04 06:30:51;;;;;;;;;;;;;;;-142.75;100.00;79256.19;5032240;28;20037;-72
2022/03/04 06:33:36;;;;;;;35.43;17.73;;;;;;;-142.75;100.00;79256.19;5030419;28;19916;-72
2022/03/04 06:36:02;;;;;;;33.37;16.20;;;;;;;-142.75;100.00;79250.28;5030707;28;20025;-72
2022/03/04 06:38:27;;;;;;;33.33;16.23;;;;;;;-142.75;100.00;79234.53;5031660;28;20372;-71
2022/03/04 06:40:53;;;;;;;34.53;17.23;;;;;;;-142.75;100.00;79228.63;5031921;28;20033;-72
2022/03/04 06:43:18;;;;;;;30.42;17.52;;;;;;;-142.75;100.00;79212.84;5031483;28;20088;-72
2022/03/04 06:45:46;;;;;;;32.70;17.13;;;;;;;-142.75;100.00;79208.91;5031105;28;20021;-72
2022/03/04 06:48:12;;;;;;;36.83;17.47;;;;;;;-142.75;100.00;79193.16;5028407;28;20033;-72
2022/03/04 06:50:38;;;;;;;32.93;17.13;;;;;;;-142.75;100.00;79183.31;5028077;28;20026;-72
2022/03/04 06:53:04;;;;;;;35.55;16.35;;;;;;;-142.75;100.00;79169.53;5031510;28;20057;-72
2022/03/04 06:55:30;;;;;;;31.10;17.10;;;;;;;-142.75;100.00;79147.84;5031705;28;20056;-72
2022/03/04 06:57:56;;;;;;;33.23;16.80;;;;;;;-142.75;100.00;79122.25;5031286;28;20029;-71
2022/03/04 07:00:22;;;;;;;33.55;16.48;;;;;;;-142.75;100.00;79104.53;5030259;28;20093;-72
2022/03/04 07:02:47;;;;;;;32.10;18.10;;;;;;;-142.75;100.00;79082.84;5031480;28;20095;-71
2022/03/04 07:05:14;;;;;;;31.17;17.15;;;;;;;-142.75;100.00;79069.06;5030630;28;20052;-71
2022/03/04 07:07:40;;;;;;;36.53;17.50;;;;;;;-142.75;100.00;79057.25;5031080;28;20055;-71
2022/03/04 07:10:06;;;;;;;29.90;16.45;;;;;;;-142.75;100.00;79033.63;5031043;28;20506;-70
2022/03/04 07:12:31;;;;;;;33.22;16.83;;;;;;;-142.75;100.00;79027.69;5030912;28;20064;-72
2022/03/04 07:14:57;;;;;;;34.55;17.20;;;;;;;-142.75;100.00;79021.78;5029799;28;20025;-71
2022/03/04 07:17:22;;;;;;;34.30;17.40;;;;;;;-142.75;100.00;79011.94;5031617;28;20048;-72
2022/03/04 07:19:48;;;;;;;30.05;16.67;;;;;;;-142.75;100.00;79002.09;5031234;28;20503;-71
2022/03/04 07:22:13;;;;;;;30.27;16.70;;;;;;;-142.75;100.00;78994.22;5031774;28;20394;-72
2022/03/04 07:24:38;;;;;;;32.20;16.58;;;;;;;-142.75;100.00;78990.28;5031674;28;20542;-71
2022/03/04 07:27:04;;;;;;;36.53;17.47;;;;;;;-142.75;100.00;78978.47;5031689;28;20061;-71
2022/03/04 07:29:29;;;;;;;33.08;16.05;;;;;;;-142.75;100.00;78968.63;5031718;28;20370;-72
2022/03/04 07:31:55;;;;;;;29.25;15.60;;;;;;;-142.75;100.00;78950.88;5030731;28;20025;-71
2022/03/04 07:34:21;;;;;;;32.80;16.65;;;;;;;-142.75;100.00;78933.16;5032091;28;20025;-72
2022/03/04 07:36:46;;;;;;;30.90;16.80;;;;;;;-142.75;100.00;78927.25;5031904;28;20032;-72
2022/03/04 07:39:12;;;;;;;32.97;17.58;;;;;;;-142.75;100.00;78915.44;5031660;28;20025;-72
2022/03/04 07:41:38;;;;;;;41.28;20.20;;;;;;;-142.75;100.00;78895.75;5031785;28;20089;-72
2022/03/04 07:44:04;;;;;;;42.35;20.85;;;;;;;-142.75;100.00;78878.00;5031735;28;20120;-72
2022/03/04 07:46:29;;;;;;;32.78;18.20;;;;;;;-142.75;100.00;78850.44;5030656;28;20116;-71
2022/03/04 07:48:55;;;;;;;36.95;18.48;;;;;;;-142.75;100.00;78826.81;5026821;28;20051;-71
2022/03/04 07:51:20;;;;;;;35.97;19.40;;;;;;;-142.75;100.00;78822.88;5024668;28;20483;-71
2022/03/04 07:53:45;;;;;;;40.10;21.42;;;;;;;-142.75;100.00;78813.00;5022661;28;20051;-71
2022/03/04 07:56:11;;;;;;;36.67;19.10;;;;;;;-142.75;100.00;78801.19;5021677;28;20059;-71
2022/03/04 07:58:36;;;;;;;42.33;21.87;;;;;;;-142.75;100.00;78801.19;5021705;28;20769;-72
2022/03/04 08:01:02;;;;;;;47.80;24.42;;;;;;;-142.75;100.00;78789.38;5022939;28;20291;-70
2022/03/04 08:03:28;;;;;;;40.70;20.40;;;;;;;-142.75;100.00;78785.44;5029609;28;20032;-70
2022/03/04 08:05:53;;;;;;;36.87;17.97;;;;;;;-142.75;100.00;78763.78;5030252;28;20021;-70
2022/03/04 08:08:18;;;;;;;30.50;18.00;;;;;;;-142.75;100.00;78757.88;5030093;28;20694;-70
2022/03/04 08:10:44;;;;;;;31.23;18.67;;;;;;;-142.75;100.00;78740.13;5025802;28;20326;-71
2022/03/04 08:13:10;;;;;;;32.60;18.33;;;;;;;-142.75;100.00;78730.28;5021632;28;20117;-70
2022/03/04 08:15:36;;;;;;;31.40;17.73;;;;;;;-142.75;100.00;78722.41;5026201;28;20078;-70
2022/03/04 08:18:01;;;;;;;30.17;16.80;;;;;;;-142.75;100.00;78706.66;5029821;28;21002;-69
2022/03/04 08:20:26;;;;;;;28.48;16.63;;;;;;;-142.75;100.00;78663.31;5029758;28;20660;-69
2022/03/04 08:22:52;;;;;;;31.17;17.33;;;;;;;-142.75;100.00;78704.69;5028952;28;20637;-71
2022/03/04 08:25:18;;;;;;;35.72;18.65;;;;;;;-142.75;100.00;78706.66;5028861;28;20086;-71
2022/03/04 08:27:43;;;;;;;33.47;18.98;;;;;;;-142.75;100.00;78716.50;5029315;28;20411;-71
2022/03/04 08:30:11;;;;;;;28.25;17.00;;;;;;;-142.75;100.00;78686.97;5022363;28;20028;-68
2022/03/04 08:32:37;;;;;;;31.67;17.83;;;;;;;-142.75;100.00;78641.66;5021871;28;20071;-71
2022/03/04 08:35:03;;;;;;;33.25;17.35;;;;;;;-142.75;100.00;78639.69;5024322;28;20100;-71
2022/03/04 08:37:28;;;;;;;;;;;;;;;-142.75;100.00;78606.22;5023430;28;20595;-71
2022/03/04 08:39:54;;;;;;;33.17;17.27;;;;;;;-142.75;100.00;78592.44;5023824;28;19920;-71
2022/03/04 08:42:19;;;;;;;31.83;17.85;;;;;;;-142.75;100.00;78547.13;5029974;28;20376;-71
2022/03/04 08:44:44;;;;;;;31.67;17.40;;;;;;;-142.75;100.00;78488.03;5029959;28;20028;-71
2022/03/04 08:47:10;;;;;;;31.97;17.50;;;;;;;-142.75;100.00;78464.41;5029720;28;20761;-72
2022/03/04 08:49:35;;;;;;;27.60;16.35;;;;;;;-142.75;100.00;78460.47;5029644;28;20100;-72
2022/03/04 08:52:00;;;;;;;35.50;18.23;;;;;;;-142.75;100.00;78454.56;5029287;28;20028;-73
2022/03/04 08:54:26;;;;;;;27.33;16.45;;;;;;;-142.75;100.00;78462.44;5029778;28;20326;-71
2022/03/04 08:56:51;;;;;;;32.85;16.77;;;;;;;-142.75;100.00;78428.97;5028398;28;20499;-69
2022/03/04 08:59:17;;;;;;;31.67;17.13;;;;;;;-142.75;100.00;78405.34;5029332;28;20025;-69
2022/03/04 09:01:42;;;;;;;31.50;17.17;;;;;;;-142.75;100.00;78389.56;5029943;28;20026;-71
2022/03/04 09:04:07;;;;;;;29.67;16.53;;;;;;;-142.75;100.00;78379.72;5029611;28;20280;-70
2022/03/04 09:06:33;;;;;;;28.17;16.48;;;;;;;-142.75;100.00;78395.47;5029704;28;20105;-70
2022/03/04 09:08:59;;;;;;;28.90;17.03;;;;;;;-142.75;100.00;78425.03;5029302;28;20035;-70
2022/03/04 09:11:24;;;;;;;28.67;17.02;;;;;;;-142.75;100.00;78432.91;5029302;28;20280;-70
2022/03/04 09:13:49;;;;;;;32.50;17.47;;;;;;;-142.75;100.00;78425.03;5029090;28;20021;-70
2022/03/04 09:16:15;;;;;;;33.90;16.90;;;;;;;-142.75;100.00;78365.94;5026464;28;20284;-70
2022/03/04 09:18:41;;;;;;;30.40;17.58;;;;;;;-142.75;100.00;78338.38;5025712;28;20033;-70
2022/03/04 09:21:06;;;;;;;32.28;17.73;;;;;;;-142.75;100.00;78326.56;5020652;28;20087;-70
2022/03/04 09:23:32;;;;;;;29.13;16.42;;;;;;;-142.75;100.00;78350.19;5018607;28;20316;-70
2022/03/04 09:25:57;;;;;;;32.20;17.00;;;;;;;-142.75;100.00;78336.41;5018054;28;20026;-69
2022/03/04 09:28:22;;;;;;;28.27;16.63;;;;;;;-142.75;100.00;78358.06;5026010;28;20029;-70
2022/03/04 09:30:48;;;;;;;28.15;16.38;;;;;;;-142.75;100.00;78336.41;5031858;28;20041;-70
2022/03/04 09:33:13;;;;;;;45.00;23.93;;;;;;;-142.75;100.00;78338.38;5032960;28;20022;-71
2022/03/04 09:35:38;;;;;;;30.73;17.88;;;;;;;-142.75;100.00;78308.84;5033583;28;20025;-70
2022/03/04 09:38:04;;;;;;;33.13;17.50;;;;;;;-142.75;100.00;78299.00;5031480;28;20067;-70
2022/03/04 09:40:31;;;;;;;28.63;16.02;;;;;;;-142.75;100.00;78277.31;5032925;28;20022;-71
2022/03/04 09:42:57;;;;;;;28.90;17.27;;;;;;;-142.75;100.00;78283.22;5029433;28;20040;-72
2022/03/04 09:45:22;;;;;;;29.02;15.85;;;;;;;-142.75;100.00;78271.41;5032617;28;20021;-71
2022/03/04 09:47:49;;;;;;;28.50;16.83;;;;;;;-142.75;100.00;78224.16;5032048;28;20055;-71
2022/03/04 09:50:16;;;;;;;26.63;16.57;;;;;;;-142.75;100.00;78212.34;5032527;28;20510;-71
2022/03/04 09:52:42;;;;;;;27.53;16.77;;;;;;;-142.75;100.00;78226.13;5031885;28;20029;-71
2022/03/04 09:55:08;;;;;;;28.02;15.95;;;;;;;-142.75;100.00;78228.09;5032293;28;20040;-71
2022/03/04 09:57:34;;;;;;;28.92;16.55;;;;;;;-142.75;100.00;78194.63;5032102;28;20025;-71
2022/03/04 09:59:59;;;;;;;28.17;16.40;;;;;;;-142.75;99.71;78145.38;5032192;28;20029;-71
2022/03/04 10:02:25;;;;;;;27.63;16.45;;;;;;;-142.75;98.74;78121.75;5032168;28;20023;-71
2022/03/04 10:04:59;;;;;;;32.22;17.17;;;;;;;-142.75;95.15;78098.13;5032024;28;20025;-71
2022/03/04 10:07:24;;;;;;;27.60;14.60;;;;;;;-142.75;89.30;78076.47;5031896;28;20147;-72
2022/03/04 10:09:49;;;;;;;27.70;16.08;;;;;;;-142.75;88.75;78086.31;5032178;28;20112;-72
2022/03/04 10:12:17;;;;;;;27.85;15.38;;;;;;;-142.75;86.03;78096.16;5031866;28;20025;-71
2022/03/04 10:14:55;;;;;;;26.80;16.03;;;;;;;-142.75;90.13;78092.22;5031813;28;20033;-72
2022/03/04 10:17:20;;;;;;;28.47;15.80;;;;;;;-142.75;87.11;78076.47;5031855;28;20021;-71
2022/03/04 10:19:54;;;;;;;27.70;15.53;;;;;;;-142.75;85.83;78044.94;5030531;28;20414;-71
2022/03/04 10:22:20;;;;;;;26.73;15.83;;;;;;;-142.75;86.42;78044.94;5031414;28;20267;-71
2022/03/04 10:24:46;;;;;;;28.05;16.15;;;;;;;-142.75;84.15;78003.59;5031792;28;20513;-71
2022/03/04 10:27:13;;;;;;;27.00;15.05;;;;;;;-142.75;82.45;77995.72;5031698;28;20033;-72
2022/03/04 10:29:46;;;;;;;27.93;16.20;;;;;;;-142.75;84.54;77999.66;5028889;28;20062;-71
2022/03/04 10:32:15;;;;;;;28.13;16.67;;;;;;;-142.75;88.16;77954.38;5031539;28;20026;-72
2022/03/04 10:35:01;;;;;;;27.13;16.83;;;;;;;-142.75;84.79;77899.22;5031232;28;20052;-71
2022/03/04 10:37:52;;;;;;;26.70;15.93;;;;;;;-142.75;79.65;77867.72;5027988;28;20503;-72
2022/03/04 10:40:21;;;;;;;29.02;16.42;;;;;;;-142.75;79.01;77877.56;5032131;28;20116;-72
2022/03/04 10:42:50;;;;;;;28.13;15.80;;;;;;;-142.75;74.95;77857.88;5030235;28;20025;-71
2022/03/04 10:45:29;;;;;;;26.67;15.67;;;;;;;-142.75;73.60;77889.38;5031246;28;20068;-72
2022/03/04 10:48:14;;;;;;;26.10;14.97;;;;;;;-142.75;73.00;77859.84;5030717;28;20056;-71
2022/03/04 10:51:04;;;;;;;29.80;16.45;;;;;;;-142.75;76.46;77773.22;5030652;28;20109;-73
2022/03/04 10:53:30;;;;;;;27.40;17.25;;;;;;;-142.75;76.79;77720.03;5031038;28;20132;-71